Terminal Aerodrome Forecast
Issued by NWS Blacksburg, VA

Home | Current Version | Previous Version | Text Only | Print | Product List | Glossary On
Versions: 1 2 3 4 5 6 7 8 9 10 11 12 13 14 15 16 17 18 19 20 21
000
FTUS41 KRNK 051736
TAFROA
TAF
KROA 051736Z 0518/0618 33008KT 4SM SHRA OVC040
     FM052100 31009G17KT P6SM -SHRA OVC025
     FM060000 31005KT 2SM -SHRA BR OVC009
     FM061200 32012G18KT P6SM SCT015 OVC040=

USA.gov is the U.S. government's official web portal to all federal, state and local government web resources and services.